createdAt,value
2023-03-05T00:01:16.487Z,96996.03
2023-03-05T00:03:44.809Z,96993.47
2023-03-05T00:06:12.956Z,97003.47
2023-03-05T00:08:41.080Z,96998.97
2023-03-05T00:11:09.988Z,97006.91
2023-03-05T00:13:38.155Z,96998.84
2023-03-05T00:16:07.058Z,97006.03
2023-03-05T00:18:36.753Z,97006.03
2023-03-05T00:21:05.300Z,97001.72
2023-03-05T00:23:33.450Z,97000.78
2023-03-05T00:26:03.708Z,97002.59
2023-03-05T00:28:31.799Z,97009.78
2023-03-05T00:31:01.346Z,97016.03
2023-03-05T00:33:29.516Z,97013.47
2023-03-05T00:36:01.853Z,97008.16
2023-03-05T00:38:30.072Z,97005.41
2023-03-05T00:40:58.305Z,97005.50
2023-03-05T00:43:26.859Z,97011.69
2023-03-05T00:45:54.983Z,97005.41
2023-03-05T00:48:23.449Z,96999.25
2023-03-05T00:50:51.532Z,97000.19
2023-03-05T00:53:21.252Z,96998.38
2023-03-05T00:55:49.404Z,96996.56
2023-03-05T00:58:17.468Z,96996.56
2023-03-05T01:00:45.568Z,97000.19
2023-03-05T01:03:13.748Z,96994.94
2023-03-05T01:05:42.025Z,97004.00
2023-03-05T01:08:10.122Z,97002.13
2023-03-05T01:10:39.591Z,96994.81
2023-03-05T01:13:07.693Z,97002.06
2023-03-05T01:15:35.770Z,96997.63
2023-03-05T01:18:03.948Z,96996.88
2023-03-05T01:20:32.056Z,96992.38
2023-03-05T01:23:01.868Z,96989.56
2023-03-05T01:25:30.018Z,97000.44
2023-03-05T01:27:59.522Z,96999.56
2023-03-05T01:30:27.600Z,96996.75
2023-03-05T01:32:56.551Z,96998.50
2023-03-05T01:35:25.503Z,96998.63
2023-03-05T01:37:53.663Z,97004.06
2023-03-05T01:40:22.614Z,97003.13
2023-03-05T01:42:51.149Z,97005.81
2023-03-05T01:45:20.643Z,97002.25
2023-03-05T01:47:49.087Z,96999.56
2023-03-05T01:50:18.619Z,97007.50
2023-03-05T01:52:47.988Z,97002.13
2023-03-05T01:55:17.579Z,97010.31
2023-03-05T01:57:46.907Z,97008.50
2023-03-05T02:00:16.185Z,97001.38
2023-03-05T02:02:46.053Z,96995.19
2023-03-05T02:05:16.139Z,96994.31
2023-03-05T02:07:45.274Z,97000.56
2023-03-05T02:10:18.143Z,96999.69
2023-03-05T02:12:46.285Z,97001.50
2023-03-05T02:15:14.361Z,97006.88
2023-03-05T02:17:42.495Z,97002.47
2023-03-05T02:20:13.827Z,96993.44
2023-03-05T02:22:43.326Z,96986.25
2023-03-05T02:25:18.540Z,96987.31
2023-03-05T02:27:51.772Z,96990.00
2023-03-05T02:30:20.041Z,96983.78
2023-03-05T02:32:48.265Z,96980.34
2023-03-05T02:35:16.534Z,96982.06
2023-03-05T02:37:46.199Z,96972.28
2023-03-05T02:40:15.088Z,96975.84
2023-03-05T02:42:43.510Z,96975.84
2023-03-05T02:45:13.509Z,96969.59
2023-03-05T02:47:41.754Z,96972.28
2023-03-05T02:50:11.410Z,96969.59
2023-03-05T02:52:40.420Z,96958.97
2023-03-05T02:55:14.455Z,96961.66
2023-03-05T02:57:43.291Z,96959.94
2023-03-05T03:00:12.789Z,96955.41
2023-03-05T03:02:41.079Z,96947.38
2023-03-05T03:05:10.315Z,96949.22
2023-03-05T03:07:38.392Z,96939.44
2023-03-05T03:10:07.370Z,96941.16
2023-03-05T03:12:39.504Z,96944.78
2023-03-05T03:15:09.287Z,96948.34
2023-03-05T03:17:37.663Z,96948.34
2023-03-05T03:20:06.534Z,96947.47
2023-03-05T03:22:34.643Z,96946.63
2023-03-05T03:25:02.777Z,96943.09
2023-03-05T03:27:30.908Z,96946.63
2023-03-05T03:30:02.663Z,96944.91
2023-03-05T03:32:30.854Z,96940.50
2023-03-05T03:34:59.006Z,96947.59
2023-03-05T03:37:27.124Z,96942.22
2023-03-05T03:39:55.235Z,96945.88
2023-03-05T03:42:23.898Z,96944.91
2023-03-05T03:44:52.090Z,96952.09
2023-03-05T03:47:21.674Z,96942.34
2023-03-05T03:49:49.782Z,96937.94
2023-03-05T03:52:17.885Z,96940.63
2023-03-05T03:54:46.018Z,96936.09
2023-03-05T03:57:14.119Z,96926.31
2023-03-05T03:59:42.399Z,96942.44
2023-03-05T04:02:10.494Z,96939.88
2023-03-05T04:04:40.080Z,96937.28
2023-03-05T04:07:08.284Z,96933.63
2023-03-05T04:09:36.344Z,96931.06
2023-03-05T04:12:04.644Z,96925.69
2023-03-05T04:14:32.708Z,96926.44
2023-03-05T04:17:00.871Z,96928.25
2023-03-05T04:19:30.748Z,96920.31
2023-03-05T04:22:00.508Z,96916.69
2023-03-05T04:24:28.615Z,96914.94
2023-03-05T04:26:56.848Z,96921.19
2023-03-05T04:29:24.908Z,96920.31
2023-03-05T04:31:53.017Z,96922.13
2023-03-05T04:34:21.093Z,96923.13
2023-03-05T04:36:49.202Z,96919.44
2023-03-05T04:39:20.978Z,96917.75
2023-03-05T04:41:49.183Z,96918.63
2023-03-05T04:44:17.800Z,96914.19
2023-03-05T04:46:46.150Z,96911.53
2023-03-05T04:49:14.333Z,96910.66
2023-03-05T04:51:42.439Z,96901.75
2023-03-05T04:54:10.588Z,96905.41
2023-03-05T04:56:40.070Z,96903.59
2023-03-05T04:59:08.183Z,96907.13
2023-03-05T05:01:36.245Z,96905.41
2023-03-05T05:04:04.496Z,96905.41
2023-03-05T05:06:32.600Z,96907.22
2023-03-05T05:09:00.660Z,96901.00
2023-03-05T05:11:28.738Z,96908.19
2023-03-05T05:13:58.270Z,96900.16
2023-03-05T05:16:26.434Z,96902.72
2023-03-05T05:18:54.613Z,96902.09
2023-03-05T05:21:22.722Z,96900.25
2023-03-05T05:23:50.826Z,96901.97
2023-03-05T05:26:18.915Z,96899.28
2023-03-05T05:28:47.172Z,96901.97
2023-03-05T05:31:17.186Z,96897.47
2023-03-05T05:33:46.333Z,96905.63
2023-03-05T05:36:16.318Z,96912.81
2023-03-05T05:38:44.393Z,96905.63
2023-03-05T05:41:13.344Z,96910.13
2023-03-05T05:43:41.526Z,96904.78
2023-03-05T05:46:12.226Z,96908.41
2023-03-05T05:48:41.896Z,96912.81
2023-03-05T05:51:12.120Z,96907.56
2023-03-05T05:53:40.358Z,96908.41
2023-03-05T05:56:09.244Z,96911.09
2023-03-05T05:58:37.507Z,96916.47
2023-03-05T06:01:13.332Z,96912.94
2023-03-05T06:03:42.846Z,96915.63
2023-03-05T06:06:11.961Z,96921.00
2023-03-05T06:08:40.135Z,96918.31
2023-03-05T06:11:08.396Z,96922.81
2023-03-05T06:13:36.563Z,96921.00
2023-03-05T06:16:05.774Z,96919.13
2023-03-05T06:18:34.408Z,96915.63
2023-03-05T06:21:04.847Z,96921.81
2023-03-05T06:23:32.978Z,96916.47
2023-03-05T06:26:01.265Z,96918.31
2023-03-05T06:28:29.491Z,96919.06
2023-03-05T06:31:03.916Z,96927.09
2023-03-05T06:33:32.035Z,96915.50
2023-03-05T06:36:00.222Z,96919.06
2023-03-05T06:38:30.192Z,96919.06
2023-03-05T06:41:02.020Z,96911.00
2023-03-05T06:43:30.112Z,96916.25
2023-03-05T06:46:04.893Z,96912.69
2023-03-05T06:48:33.443Z,96910.03
2023-03-05T06:51:01.880Z,96905.53
2023-03-05T06:53:31.340Z,96915.28
2023-03-05T06:56:02.104Z,96917.13
2023-03-05T06:58:30.242Z,96913.44
2023-03-05T07:00:58.428Z,96915.28
2023-03-05T07:03:26.528Z,96911.63
2023-03-05T07:05:54.692Z,96909.69
2023-03-05T07:08:22.769Z,96914.94
2023-03-05T07:10:52.268Z,96913.25
2023-03-05T07:13:20.370Z,96906.03
2023-03-05T07:15:48.593Z,96907.88
2023-03-05T07:18:16.645Z,96901.66
2023-03-05T07:20:44.784Z,96902.50
2023-03-05T07:23:12.860Z,96900.66
2023-03-05T07:25:41.038Z,96906.03
2023-03-05T07:28:10.689Z,96897.97
2023-03-05T07:30:38.960Z,96902.16
2023-03-05T07:33:07.069Z,96903.16
2023-03-05T07:35:35.175Z,96895.97
2023-03-05T07:38:03.321Z,96893.16
2023-03-05T07:40:31.365Z,96898.53
2023-03-05T07:42:59.468Z,96896.69
2023-03-05T07:45:33.306Z,96886.91
2023-03-05T07:48:01.418Z,96885.22
2023-03-05T07:50:29.551Z,96884.34
2023-03-05T07:52:57.755Z,96887.91
2023-03-05T07:55:25.944Z,96879.72
2023-03-05T07:57:54.263Z,96879.72
2023-03-05T08:00:22.675Z,96873.38
2023-03-05T08:02:52.178Z,96867.06
2023-03-05T08:05:20.459Z,96874.13
2023-03-05T08:07:48.621Z,96865.97
2023-03-05T08:10:16.719Z,96871.13
2023-03-05T08:12:44.828Z,96858.44
2023-03-05T08:15:13.236Z,96858.31
2023-03-05T08:17:41.376Z,96856.63
2023-03-05T08:20:12.397Z,96855.75
2023-03-05T08:22:40.486Z,96848.69
2023-03-05T08:25:09.218Z,96846.09
2023-03-05T08:27:40.056Z,96843.41
2023-03-05T08:30:09.748Z,96841.47
2023-03-05T08:32:37.858Z,96837.06
2023-03-05T08:35:06.978Z,96834.38
2023-03-05T08:37:36.434Z,96838.88
2023-03-05T08:40:05.224Z,96837.06
2023-03-05T08:42:33.275Z,96829.00
2023-03-05T08:45:01.522Z,96831.69
2023-03-05T08:47:29.605Z,96831.47
2023-03-05T08:49:58.564Z,96832.19
2023-03-05T08:52:27.347Z,96826.75
2023-03-05T08:54:57.112Z,96821.25
2023-03-05T08:57:25.182Z,96822.88
2023-03-05T08:59:53.276Z,96822.78
2023-03-05T09:02:21.371Z,96826.22
2023-03-05T09:04:49.482Z,96814.38
2023-03-05T09:07:17.698Z,96817.81
2023-03-05T09:09:45.812Z,96814.03
2023-03-05T09:12:16.039Z,96806.72
2023-03-05T09:14:44.170Z,96806.63
2023-03-05T09:17:12.249Z,96794.75
2023-03-05T09:19:40.347Z,96791.97
2023-03-05T09:22:08.413Z,96796.25
2023-03-05T09:24:36.526Z,96786.16
2023-03-05T09:27:04.718Z,96789.59
2023-03-05T09:29:34.195Z,96780.53
2023-03-05T09:32:02.410Z,96776.16
2023-03-05T09:34:30.596Z,96779.38
2023-03-05T09:36:58.788Z,96777.41
2023-03-05T09:39:27.008Z,96770.88
2023-03-05T09:42:12.931Z,96772.28
2023-03-05T09:44:46.655Z,96771.03
2023-03-05T09:47:23.310Z,96771.06
2023-03-05T09:49:54.452Z,96762.72
2023-03-05T09:52:23.378Z,96760.78
2023-03-05T09:54:54.657Z,96756.88
2023-03-05T09:57:24.117Z,96753.00
2023-03-05T09:59:55.213Z,96750.97
2023-03-05T10:02:25.776Z,96748.91
2023-03-05T10:04:56.025Z,96745.16
2023-03-05T10:07:27.197Z,96738.91
2023-03-05T10:09:57.200Z,96734.41
2023-03-05T10:12:28.810Z,96732.56
2023-03-05T10:15:00.637Z,96727.09
2023-03-05T10:17:47.323Z,96728.81
2023-03-05T10:20:32.200Z,96731.28
2023-03-05T10:23:11.395Z,96722.22
2023-03-05T10:25:51.452Z,96727.59
2023-03-05T10:28:21.434Z,96719.41
2023-03-05T10:31:03.584Z,96716.75
2023-03-05T10:33:34.261Z,96713.09
2023-03-05T10:36:26.332Z,96712.09
2023-03-05T10:39:05.182Z,96707.47
2023-03-05T10:41:35.721Z,96706.66
2023-03-05T10:44:06.212Z,96706.53
2023-03-05T10:46:36.643Z,96693.09
2023-03-05T10:49:07.637Z,96694.78
2023-03-05T10:51:37.652Z,96693.88
2023-03-05T10:54:10.344Z,96688.50
2023-03-05T10:56:38.542Z,96679.44
2023-03-05T10:59:06.588Z,96681.19
2023-03-05T11:01:37.434Z,96672.13
2023-03-05T11:04:05.972Z,96665.06
2023-03-05T11:06:36.318Z,96656.03
2023-03-05T11:09:18.340Z,96654.19
2023-03-05T11:11:46.527Z,96652.38
2023-03-05T11:14:31.174Z,96647.88
2023-03-05T11:17:00.736Z,96641.50
2023-03-05T11:19:32.856Z,96634.31
2023-03-05T11:22:10.861Z,96628.94
2023-03-05T11:24:39.006Z,96624.53
2023-03-05T11:27:25.512Z,96624.53
2023-03-05T11:29:53.679Z,96620.88
2023-03-05T11:32:25.423Z,96614.53
2023-03-05T11:34:53.759Z,96613.69
2023-03-05T11:37:24.606Z,96602.94
2023-03-05T11:40:08.471Z,96605.50
2023-03-05T11:42:36.770Z,96596.59
2023-03-05T11:45:05.570Z,96600.13
2023-03-05T11:47:37.659Z,96591.22
2023-03-05T11:50:13.124Z,96589.41
2023-03-05T11:52:43.438Z,96583.28
2023-03-05T11:55:14.255Z,96575.34
2023-03-05T11:57:44.225Z,96571.69
2023-03-05T12:00:16.453Z,96570.72
2023-03-05T12:02:53.641Z,96566.19
2023-03-05T12:05:21.844Z,96559.13
2023-03-05T12:07:51.481Z,96554.59
2023-03-05T12:10:21.033Z,96548.25
2023-03-05T12:12:50.779Z,96541.06
2023-03-05T12:15:40.116Z,96536.63
2023-03-05T12:18:29.700Z,96532.13
2023-03-05T12:21:02.732Z,96524.06
2023-03-05T12:23:31.082Z,96523.19
2023-03-05T12:26:01.332Z,96517.59
2023-03-05T12:28:57.121Z,96510.41
2023-03-05T12:31:39.524Z,96503.19
2023-03-05T12:34:49.212Z,96503.09
2023-03-05T12:37:50.591Z,96505.78
2023-03-05T12:40:23.065Z,96491.63
2023-03-05T12:42:56.035Z,96496.97
2023-03-05T12:45:29.202Z,96485.38
2023-03-05T12:48:33.484Z,96484.38
2023-03-05T12:51:03.231Z,96478.06
2023-03-05T12:53:31.568Z,96474.50
2023-03-05T12:56:04.085Z,96476.09
2023-03-05T12:58:38.735Z,96471.81
2023-03-05T13:01:13.600Z,96472.69
2023-03-05T13:03:45.098Z,96473.53
2023-03-05T13:06:25.893Z,96473.41
2023-03-05T13:08:58.182Z,96470.72
2023-03-05T13:11:26.316Z,96467.19
2023-03-05T13:13:54.466Z,96459.00
2023-03-05T13:16:24.583Z,96459.00
2023-03-05T13:18:52.937Z,96450.09
2023-03-05T13:21:21.794Z,96450.94
2023-03-05T13:23:57.786Z,96455.34
2023-03-05T13:26:26.935Z,96458.03
2023-03-05T13:29:08.550Z,96446.28
2023-03-05T13:31:36.976Z,96444.59
2023-03-05T13:34:11.403Z,96443.59
2023-03-05T13:36:39.552Z,96440.91
2023-03-05T13:39:09.033Z,96431.03
2023-03-05T13:41:37.127Z,96429.22
2023-03-05T13:44:05.295Z,96433.59
2023-03-05T13:46:34.317Z,96429.22
2023-03-05T13:49:18.331Z,96429.22
2023-03-05T13:51:47.373Z,96425.53
2023-03-05T13:54:17.834Z,96421.03
2023-03-05T13:56:53.685Z,96414.78
2023-03-05T13:59:22.673Z,96423.72
2023-03-05T14:01:50.751Z,96417.47
2023-03-05T14:04:21.766Z,96412.09
2023-03-05T14:06:50.615Z,96412.97
2023-03-05T14:09:21.845Z,96408.59
2023-03-05T14:11:57.436Z,96403.22
2023-03-05T14:14:25.852Z,96404.91
2023-03-05T14:16:54.006Z,96398.66
2023-03-05T14:19:36.707Z,96402.09
2023-03-05T14:22:05.016Z,96397.84
2023-03-05T14:24:34.716Z,96397.84
2023-03-05T14:27:05.720Z,96392.47
2023-03-05T14:29:33.920Z,96400.53
2023-03-05T14:32:04.128Z,96395.03
2023-03-05T14:34:33.093Z,96393.28
2023-03-05T14:37:03.217Z,96385.25
2023-03-05T14:39:41.280Z,96382.56
2023-03-05T14:42:29.187Z,96386.97
2023-03-05T14:44:58.103Z,96384.28
2023-03-05T14:47:26.292Z,96376.22
2023-03-05T14:49:54.388Z,96382.31
2023-03-05T14:52:23.480Z,96385.00
2023-03-05T14:54:53.189Z,96379.63
2023-03-05T14:57:22.501Z,96383.19
2023-03-05T14:59:50.639Z,96385.88
2023-03-05T15:02:19.271Z,96378.78
2023-03-05T15:04:47.519Z,96375.22
2023-03-05T15:07:20.417Z,96370.72
2023-03-05T15:09:48.563Z,96377.81
2023-03-05T15:12:18.129Z,96374.25
2023-03-05T15:14:46.239Z,96376.09
2023-03-05T15:17:19.162Z,96376.94
2023-03-05T15:19:47.853Z,96371.56
2023-03-05T15:22:16.271Z,96365.34
2023-03-05T15:24:44.414Z,96365.34
2023-03-05T15:27:12.629Z,96364.47
2023-03-05T15:29:42.138Z,96362.78
2023-03-05T15:32:10.316Z,96356.56
2023-03-05T15:34:38.478Z,96360.09
2023-03-05T15:37:06.611Z,96362.78
2023-03-05T15:39:34.722Z,96368.16
2023-03-05T15:42:04.450Z,96363.75
2023-03-05T15:44:33.405Z,96365.59
2023-03-05T15:47:02.938Z,96362.06
2023-03-05T15:49:31.075Z,96364.75
2023-03-05T15:51:59.158Z,96365.59
2023-03-05T15:54:27.768Z,96361.31
2023-03-05T15:56:55.828Z,96361.31
2023-03-05T15:59:24.026Z,96366.69
2023-03-05T16:01:52.877Z,96359.59
2023-03-05T16:04:22.412Z,96370.34
2023-03-05T16:06:50.560Z,96364.16
2023-03-05T16:09:20.189Z,96369.53
2023-03-05T16:11:51.326Z,96369.53
2023-03-05T16:14:21.038Z,96371.47
2023-03-05T16:16:49.067Z,96369.63
2023-03-05T16:19:17.831Z,96371.56
2023-03-05T16:21:47.432Z,96369.75
2023-03-05T16:24:15.534Z,96377.94
2023-03-05T16:26:43.656Z,96370.75
2023-03-05T16:29:12.495Z,96378.81
2023-03-05T16:31:43.116Z,96369.03
2023-03-05T16:34:14.067Z,96372.56
2023-03-05T16:36:42.210Z,96375.25
2023-03-05T16:39:11.697Z,96373.53
2023-03-05T16:41:39.823Z,96372.81
2023-03-05T16:44:07.953Z,96379.03
2023-03-05T16:46:36.069Z,96376.34
2023-03-05T16:49:04.586Z,96378.19
2023-03-05T16:51:32.693Z,96377.22
2023-03-05T16:54:00.851Z,96376.34
2023-03-05T16:56:30.302Z,96369.28
2023-03-05T16:58:58.411Z,96380.03
2023-03-05T17:01:26.994Z,96380.88
2023-03-05T17:03:55.226Z,96388.91
2023-03-05T17:06:24.330Z,96386.22
2023-03-05T17:08:52.736Z,96382.72
2023-03-05T17:11:21.266Z,96386.22
2023-03-05T17:13:50.863Z,96388.09
2023-03-05T17:16:19.479Z,96389.91
2023-03-05T17:18:47.685Z,96396.16
2023-03-05T17:21:16.564Z,96403.22
2023-03-05T17:23:44.721Z,96399.66
2023-03-05T17:26:13.871Z,96399.66
2023-03-05T17:28:42.118Z,96404.22
2023-03-05T17:31:11.642Z,96406.88
2023-03-05T17:33:39.987Z,96416.63
2023-03-05T17:36:14.984Z,96413.09
2023-03-05T17:38:43.100Z,96415.78
2023-03-05T17:41:11.382Z,96411.28
2023-03-05T17:43:39.569Z,96414.81
2023-03-05T17:46:07.808Z,96413.09
2023-03-05T17:48:39.231Z,96424.69
2023-03-05T17:51:07.508Z,96418.47
2023-03-05T17:53:36.097Z,96419.31
2023-03-05T17:56:07.217Z,96421.06
2023-03-05T17:58:35.398Z,96429.94
2023-03-05T18:01:03.523Z,96423.84
2023-03-05T18:03:31.679Z,96427.50
2023-03-05T18:06:01.164Z,96426.91
2023-03-05T18:08:29.348Z,96433.25
2023-03-05T18:10:57.414Z,96431.44
2023-03-05T18:13:25.664Z,96432.16
2023-03-05T18:15:53.724Z,96430.34
2023-03-05T18:18:21.859Z,96432.03
2023-03-05T18:20:50.559Z,96432.88
2023-03-05T18:23:20.134Z,96438.13
2023-03-05T18:25:48.174Z,96434.47
2023-03-05T18:28:16.909Z,96439.72
2023-03-05T18:30:45.912Z,96426.28
2023-03-05T18:33:16.466Z,96436.91
2023-03-05T18:35:44.624Z,96434.22
2023-03-05T18:38:12.916Z,96436.03
2023-03-05T18:40:43.858Z,96444.97
2023-03-05T18:43:12.128Z,96442.28
2023-03-05T18:45:40.391Z,96445.81
2023-03-05T18:48:08.928Z,96445.69
2023-03-05T18:50:37.072Z,96444.81
2023-03-05T18:53:05.179Z,96452.78
2023-03-05T18:55:33.415Z,96443.88
2023-03-05T18:58:05.068Z,96451.94
2023-03-05T19:00:33.528Z,96441.19
2023-03-05T19:03:03.546Z,96450.09
2023-03-05T19:05:32.321Z,96453.50
2023-03-05T19:08:00.732Z,96446.41
2023-03-05T19:10:29.087Z,96450.94
2023-03-05T19:13:39.929Z,96455.34
2023-03-05T19:16:10.403Z,96453.50
2023-03-05T19:19:18.329Z,96456.94
2023-03-05T19:21:47.481Z,96459.50
2023-03-05T19:24:15.791Z,96468.28
2023-03-05T19:26:44.548Z,96469.97
2023-03-05T19:29:14.151Z,96469.88
2023-03-05T19:31:42.482Z,96461.69
2023-03-05T19:34:10.698Z,96457.19
2023-03-05T19:36:38.972Z,96465.97
2023-03-05T19:39:07.432Z,96461.31
2023-03-05T19:41:36.043Z,96466.56
2023-03-05T19:44:04.211Z,96462.88
2023-03-05T19:46:34.125Z,96466.44
2023-03-05T19:49:02.345Z,96474.34
2023-03-05T19:51:30.569Z,96469.84
2023-03-05T19:53:58.866Z,96466.19
2023-03-05T19:56:27.118Z,96468.88
2023-03-05T19:58:55.669Z,96469.72
2023-03-05T20:01:26.072Z,96467.03
2023-03-05T20:03:56.815Z,96472.41
2023-03-05T20:06:25.157Z,96465.19
2023-03-05T20:08:53.357Z,96468.88
2023-03-05T20:11:21.751Z,96470.72
2023-03-05T20:13:50.344Z,96466.19
2023-03-05T20:16:23.518Z,96472.41
2023-03-05T20:18:53.062Z,96473.25
2023-03-05T20:21:24.184Z,96465.34
2023-03-05T20:23:52.895Z,96473.25
2023-03-05T20:26:21.149Z,96469.72
2023-03-05T20:28:50.097Z,96463.38
2023-03-05T20:31:19.305Z,96468.75
2023-03-05T20:33:47.657Z,96470.44
2023-03-05T20:36:15.853Z,96469.63
2023-03-05T20:38:45.909Z,96465.06
2023-03-05T20:41:15.272Z,96467.88
2023-03-05T20:43:44.917Z,96465.06
2023-03-05T20:46:16.912Z,96469.63
2023-03-05T20:48:45.832Z,96471.31
2023-03-05T20:51:14.687Z,96470.44
2023-03-05T20:53:43.209Z,96470.44
2023-03-05T20:56:12.701Z,96464.25
2023-03-05T20:58:40.807Z,96462.38
2023-03-05T21:01:08.981Z,96465.94
2023-03-05T21:03:38.816Z,96465.94
2023-03-05T21:06:07.499Z,96464.09
2023-03-05T21:08:35.694Z,96462.38
2023-03-05T21:11:06.514Z,96465.06
2023-03-05T21:13:36.088Z,96454.31
2023-03-05T21:16:07.457Z,96462.38
2023-03-05T21:18:35.605Z,96466.94
2023-03-05T21:21:03.722Z,96453.50
2023-03-05T21:23:32.846Z,96456.19
2023-03-05T21:26:00.903Z,96457.00
2023-03-05T21:28:30.030Z,96451.63
2023-03-05T21:30:59.533Z,96450.66
2023-03-05T21:33:28.714Z,96453.34
2023-03-05T21:35:58.137Z,96448.94
2023-03-05T21:38:29.845Z,96450.66
2023-03-05T21:40:58.959Z,96456.91
2023-03-05T21:43:27.251Z,96456.91
2023-03-05T21:45:57.217Z,96452.38
2023-03-05T21:48:26.916Z,96455.06
2023-03-05T21:50:55.508Z,96450.66
2023-03-05T21:53:23.736Z,96455.19
2023-03-05T21:56:25.165Z,96460.44
2023-03-05T21:58:53.430Z,96463.13
2023-03-05T22:01:22.188Z,96463.13
2023-03-05T22:03:51.837Z,96460.44
2023-03-05T22:06:22.555Z,96455.06
2023-03-05T22:08:51.346Z,96452.38
2023-03-05T22:11:20.869Z,96449.69
2023-03-05T22:13:49.144Z,96455.06
2023-03-05T22:16:24.351Z,96449.69
2023-03-05T22:18:54.097Z,96444.31
2023-03-05T22:21:23.206Z,96447.84
2023-03-05T22:23:51.325Z,96448.84
2023-03-05T22:26:19.411Z,96449.69
2023-03-05T22:28:47.556Z,96450.66
2023-03-05T22:31:21.065Z,96447.00
2023-03-05T22:33:49.240Z,96443.47
2023-03-05T22:36:18.683Z,96447.97
2023-03-05T22:38:47.002Z,96445.31
2023-03-05T22:41:15.988Z,96449.81
2023-03-05T22:43:44.198Z,96448.13
2023-03-05T22:46:12.759Z,96450.81
2023-03-05T22:48:41.091Z,96446.25
2023-03-05T22:51:09.467Z,96443.72
2023-03-05T22:53:39.004Z,96452.75
2023-03-05T22:56:08.163Z,96446.53
2023-03-05T22:58:36.264Z,96438.47
2023-03-05T23:01:04.587Z,96442.13
2023-03-05T23:03:32.784Z,96437.59
2023-03-05T23:06:00.956Z,96437.75
2023-03-05T23:08:29.042Z,96432.38
2023-03-05T23:10:58.543Z,96444.06
2023-03-05T23:13:26.651Z,96438.69
2023-03-05T23:15:54.785Z,96431.63
2023-03-05T23:18:22.899Z,96430.63
2023-03-05T23:20:53.630Z,96428.94
2023-03-05T23:23:21.800Z,96426.25
2023-03-05T23:25:51.206Z,96428.22
2023-03-05T23:28:20.781Z,96431.75
2023-03-05T23:30:48.931Z,96421.13
2023-03-05T23:33:17.854Z,96426.50
2023-03-05T23:35:51.044Z,96422.97
2023-03-05T23:38:19.148Z,96422.13
2023-03-05T23:40:48.097Z,96418.56
2023-03-05T23:43:16.428Z,96416.88
2023-03-05T23:45:48.010Z,96421.38
2023-03-05T23:48:16.226Z,96417.84
2023-03-05T23:50:47.538Z,96419.66
2023-03-05T23:53:17.233Z,96416.97
2023-03-05T23:55:45.749Z,96414.41
2023-03-05T23:58:14.226Z,96413.56
